VKG4530 EKCH-EKRN
Flight info
| Callsign | VKG4530 |
|---|---|
| Flight time | 0h 19m |
| Altitude | 15000 |
| Route | SIMEG Z491 TELMO L983 ROE |
| Aircraft | A321/M-SDE2E3FGHIRWY/LB1 |
Departure
| Time | 2026-05-06 06:51 |
|---|---|
| Airport | Copenhagen Kastrup Airport (EKCH) |
Arrival
| Time | 2026-05-06 07:10 |
|---|---|
| Airport | Bornholm Airport (EKRN) |
| Time | Latitude | Longitude | Altitude | Speed | Heading |
|---|---|---|---|---|---|
| 2026-05-06 06:35 | 55.62624 | 12.64421 | 19 ft | 0 kts | 66° |
| 2026-05-06 06:36 | 55.62621 | 12.64407 | 19 ft | 2 kts | 66° |
| 2026-05-06 06:36 | 55.62615 | 12.64383 | 19 ft | 2 kts | 67° |
| 2026-05-06 06:37 | 55.62609 | 12.64359 | 19 ft | 2 kts | 66° |
| 2026-05-06 06:37 | 55.62603 | 12.64335 | 18 ft | 2 kts | 67° |
| 2026-05-06 06:37 | 55.62597 | 12.64310 | 18 ft | 2 kts | 67° |
| 2026-05-06 06:37 | 55.62591 | 12.64286 | 18 ft | 2 kts | 68° |
| 2026-05-06 06:38 | 55.62588 | 12.64260 | 18 ft | 2 kts | 89° |
| 2026-05-06 06:38 | 55.62589 | 12.64234 | 18 ft | 2 kts | 104° |
| 2026-05-06 06:38 | 55.62595 | 12.64209 | 18 ft | 2 kts | 121° |
| 2026-05-06 06:38 | 55.62603 | 12.64188 | 18 ft | 2 kts | 125° |
| 2026-05-06 06:39 | 55.62611 | 12.64167 | 18 ft | 2 kts | 123° |
| 2026-05-06 06:39 | 55.62618 | 12.64147 | 18 ft | 1 kts | 124° |
| 2026-05-06 06:39 | 55.62620 | 12.64143 | 18 ft | 0 kts | 124° |
| 2026-05-06 06:42 | 55.62614 | 12.64158 | 18 ft | 4 kts | 124° |
| 2026-05-06 06:43 | 55.62589 | 12.64224 | 18 ft | 8 kts | 124° |
| 2026-05-06 06:43 | 55.62554 | 12.64319 | 17 ft | 10 kts | 124° |
| 2026-05-06 06:43 | 55.62511 | 12.64435 | 18 ft | 11 kts | 123° |
| 2026-05-06 06:43 | 55.62463 | 12.64565 | 18 ft | 14 kts | 123° |
| 2026-05-06 06:44 | 55.62404 | 12.64727 | 17 ft | 15 kts | 123° |
| 2026-05-06 06:44 | 55.62331 | 12.64783 | 16 ft | 13 kts | 176° |
| 2026-05-06 06:44 | 55.62243 | 12.64790 | 16 ft | 11 kts | 187° |
| 2026-05-06 06:44 | 55.62169 | 12.64726 | 16 ft | 12 kts | 213° |
| 2026-05-06 06:45 | 55.62093 | 12.64638 | 16 ft | 13 kts | 213° |
| 2026-05-06 06:45 | 55.62011 | 12.64545 | 16 ft | 13 kts | 211° |
| 2026-05-06 06:45 | 55.61921 | 12.64504 | 16 ft | 13 kts | 179° |
| 2026-05-06 06:45 | 55.61833 | 12.64528 | 16 ft | 12 kts | 168° |
| 2026-05-06 06:46 | 55.61744 | 12.64558 | 16 ft | 13 kts | 170° |
| 2026-05-06 06:46 | 55.61650 | 12.64537 | 16 ft | 13 kts | 210° |
| 2026-05-06 06:46 | 55.61569 | 12.64445 | 16 ft | 15 kts | 213° |
| 2026-05-06 06:46 | 55.61470 | 12.64331 | 16 ft | 18 kts | 213° |
| 2026-05-06 06:47 | 55.61356 | 12.64200 | 16 ft | 20 kts | 213° |
| 2026-05-06 06:47 | 55.61234 | 12.64058 | 17 ft | 22 kts | 213° |
| 2026-05-06 06:47 | 55.61108 | 12.63914 | 17 ft | 21 kts | 213° |
| 2026-05-06 06:47 | 55.60985 | 12.63774 | 17 ft | 20 kts | 213° |
| 2026-05-06 06:48 | 55.60865 | 12.63635 | 16 ft | 22 kts | 212° |
| 2026-05-06 06:48 | 55.60737 | 12.63487 | 16 ft | 20 kts | 213° |
| 2026-05-06 06:48 | 55.60626 | 12.63350 | 15 ft | 17 kts | 220° |
| 2026-05-06 06:48 | 55.60544 | 12.63224 | 15 ft | 14 kts | 221° |
| 2026-05-06 06:49 | 55.60473 | 12.63121 | 15 ft | 13 kts | 205° |
| 2026-05-06 06:49 | 55.60407 | 12.63141 | 14 ft | 3 kts | 137° |
| 2026-05-06 06:49 | 55.60381 | 12.63190 | 13 ft | 7 kts | 133° |
| 2026-05-06 06:49 | 55.60345 | 12.63284 | 13 ft | 11 kts | 101° |
| 2026-05-06 06:50 | 55.60390 | 12.63429 | 13 ft | 19 kts | 42° |
| 2026-05-06 06:50 | 55.60660 | 12.63846 | 16 ft | 89 kts | 42° |
| 2026-05-06 06:50 | 55.61304 | 12.64842 | 20 ft | 153 kts | 40° |
| 2026-05-06 06:50 | 55.62171 | 12.66175 | 490 ft | 172 kts | 41° |
| 2026-05-06 06:51 | 55.63032 | 12.67515 | 1396 ft | 168 kts | 41° |
| 2026-05-06 06:51 | 55.63930 | 12.68924 | 1933 ft | 182 kts | 45° |
| 2026-05-06 06:51 | 55.64527 | 12.70904 | 2501 ft | 192 kts | 82° |
| 2026-05-06 06:51 | 55.64293 | 12.73237 | 3114 ft | 203 kts | 117° |
| 2026-05-06 06:52 | 55.63251 | 12.75025 | 3683 ft | 219 kts | 152° |
| 2026-05-06 06:52 | 55.61783 | 12.75843 | 4353 ft | 229 kts | 168° |
| 2026-05-06 06:52 | 55.60174 | 12.76173 | 5002 ft | 239 kts | 174° |
| 2026-05-06 06:52 | 55.58492 | 12.76363 | 5719 ft | 246 kts | 175° |
| 2026-05-06 06:53 | 55.56805 | 12.76553 | 6406 ft | 254 kts | 175° |
| 2026-05-06 06:53 | 55.54967 | 12.76786 | 6870 ft | 271 kts | 175° |
| 2026-05-06 06:53 | 55.53067 | 12.77463 | 7381 ft | 285 kts | 158° |
| 2026-05-06 06:53 | 55.51407 | 12.79325 | 8053 ft | 288 kts | 133° |
| 2026-05-06 06:54 | 55.50327 | 12.82294 | 8612 ft | 291 kts | 114° |
| 2026-05-06 06:54 | 55.49604 | 12.85680 | 9196 ft | 294 kts | 109° |
| 2026-05-06 06:54 | 55.48964 | 12.89097 | 9760 ft | 295 kts | 109° |
| 2026-05-06 06:54 | 55.48296 | 12.92531 | 10183 ft | 303 kts | 110° |
| 2026-05-06 06:55 | 55.47564 | 12.96087 | 10378 ft | 319 kts | 111° |
| 2026-05-06 06:55 | 55.46749 | 12.99871 | 10633 ft | 331 kts | 112° |
| 2026-05-06 06:55 | 55.45909 | 13.03710 | 10954 ft | 341 kts | 112° |
| 2026-05-06 06:55 | 55.45050 | 13.07640 | 11219 ft | 352 kts | 112° |
| 2026-05-06 06:56 | 55.44154 | 13.11758 | 11518 ft | 361 kts | 112° |
| 2026-05-06 06:56 | 55.43257 | 13.15889 | 11982 ft | 365 kts | 112° |
| 2026-05-06 06:56 | 55.42338 | 13.20119 | 12300 ft | 372 kts | 112° |
| 2026-05-06 06:56 | 55.41403 | 13.24417 | 12745 ft | 375 kts | 112° |
| 2026-05-06 06:57 | 55.40468 | 13.28709 | 13130 ft | 378 kts | 112° |
| 2026-05-06 06:57 | 55.39519 | 13.33055 | 13510 ft | 380 kts | 112° |
| 2026-05-06 06:57 | 55.38564 | 13.37422 | 13881 ft | 382 kts | 112° |
| 2026-05-06 06:57 | 55.37608 | 13.41783 | 14236 ft | 385 kts | 112° |
| 2026-05-06 06:58 | 55.36644 | 13.46170 | 14649 ft | 387 kts | 112° |
| 2026-05-06 06:58 | 55.35651 | 13.50684 | 14891 ft | 393 kts | 112° |
| 2026-05-06 06:58 | 55.34676 | 13.55103 | 14874 ft | 389 kts | 112° |
| 2026-05-06 06:58 | 55.33700 | 13.59521 | 14887 ft | 388 kts | 112° |
| 2026-05-06 06:59 | 55.32716 | 13.63963 | 14689 ft | 391 kts | 112° |
| 2026-05-06 06:59 | 55.31731 | 13.68404 | 14402 ft | 386 kts | 113° |
| 2026-05-06 06:59 | 55.30770 | 13.72729 | 14143 ft | 378 kts | 113° |
| 2026-05-06 06:59 | 55.29825 | 13.76976 | 13925 ft | 372 kts | 114° |
| 2026-05-06 07:00 | 55.28883 | 13.81195 | 13557 ft | 369 kts | 114° |
| 2026-05-06 07:00 | 55.27951 | 13.85361 | 13183 ft | 365 kts | 113° |
| 2026-05-06 07:00 | 55.27018 | 13.89521 | 12709 ft | 364 kts | 113° |
| 2026-05-06 07:00 | 55.26102 | 13.93598 | 12208 ft | 360 kts | 113° |
| 2026-05-06 07:01 | 55.25182 | 13.97683 | 11704 ft | 356 kts | 113° |
| 2026-05-06 07:01 | 55.24270 | 14.01726 | 11201 ft | 352 kts | 112° |
| 2026-05-06 07:01 | 55.23379 | 14.05668 | 10667 ft | 346 kts | 112° |
| 2026-05-06 07:01 | 55.22512 | 14.09498 | 10368 ft | 330 kts | 112° |
| 2026-05-06 07:02 | 55.21692 | 14.13114 | 10086 ft | 311 kts | 112° |
| 2026-05-06 07:02 | 55.20915 | 14.16532 | 9879 ft | 296 kts | 112° |
| 2026-05-06 07:02 | 55.20153 | 14.19855 | 9515 ft | 294 kts | 111° |
| 2026-05-06 07:02 | 55.19385 | 14.23155 | 9031 ft | 289 kts | 111° |
| 2026-05-06 07:03 | 55.18646 | 14.26326 | 8601 ft | 276 kts | 110° |
| 2026-05-06 07:03 | 55.17941 | 14.29386 | 8113 ft | 270 kts | 110° |
| 2026-05-06 07:03 | 55.17262 | 14.32373 | 7612 ft | 261 kts | 109° |
| 2026-05-06 07:03 | 55.16587 | 14.35293 | 7085 ft | 255 kts | 110° |
| 2026-05-06 07:04 | 55.15894 | 14.38086 | 6562 ft | 249 kts | 111° |
| 2026-05-06 07:04 | 55.15205 | 14.40815 | 6024 ft | 241 kts | 111° |
| 2026-05-06 07:04 | 55.14547 | 14.43402 | 5386 ft | 227 kts | 111° |
| 2026-05-06 07:04 | 55.13923 | 14.45849 | 4797 ft | 213 kts | 111° |
| 2026-05-06 07:05 | 55.13312 | 14.48082 | 4253 ft | 200 kts | 115° |
| 2026-05-06 07:05 | 55.12717 | 14.50220 | 3723 ft | 188 kts | 110° |
| 2026-05-06 07:05 | 55.12240 | 14.52245 | 3240 ft | 178 kts | 109° |
| 2026-05-06 07:05 | 55.11784 | 14.54154 | 2752 ft | 167 kts | 110° |
| 2026-05-06 07:06 | 55.11346 | 14.55934 | 2432 ft | 153 kts | 110° |
| 2026-05-06 07:06 | 55.10923 | 14.57632 | 2133 ft | 149 kts | 109° |
| 2026-05-06 07:06 | 55.10524 | 14.59228 | 1957 ft | 136 kts | 109° |
| 2026-05-06 07:06 | 55.10148 | 14.60738 | 1755 ft | 135 kts | 109° |
| 2026-05-06 07:07 | 55.09783 | 14.62203 | 1535 ft | 127 kts | 109° |
| 2026-05-06 07:07 | 55.09426 | 14.63630 | 1420 ft | 131 kts | 109° |
| 2026-05-06 07:07 | 55.09062 | 14.65084 | 1230 ft | 131 kts | 110° |
| 2026-05-06 07:07 | 55.08693 | 14.66555 | 1043 ft | 132 kts | 110° |
| 2026-05-06 07:08 | 55.08326 | 14.68015 | 872 ft | 132 kts | 110° |
| 2026-05-06 07:08 | 55.07955 | 14.69494 | 692 ft | 132 kts | 110° |
| 2026-05-06 07:08 | 55.07587 | 14.70957 | 515 ft | 130 kts | 110° |
| 2026-05-06 07:08 | 55.07224 | 14.72399 | 343 ft | 130 kts | 110° |
| 2026-05-06 07:09 | 55.06857 | 14.73852 | 170 ft | 130 kts | 111° |
| 2026-05-06 07:09 | 55.06512 | 14.75107 | 45 ft | 73 kts | 207° |
| 2026-05-06 07:10 | 55.06328 | 14.75953 | 51 ft | 33 kts | 111° |
| 2026-05-06 07:10 | 55.06221 | 14.76384 | 55 ft | 45 kts | 115° |
| 2026-05-06 07:10 | 55.06109 | 14.76819 | 55 ft | 28 kts | 115° |
| 2026-05-06 07:11 | 55.06053 | 14.76984 | 55 ft | 9 kts | 126° |
| 2026-05-06 07:11 | 55.06059 | 14.77016 | 55 ft | 3 kts | 341° |
| 2026-05-06 07:11 | 55.06081 | 14.76936 | 55 ft | 10 kts | 289° |
| 2026-05-06 07:11 | 55.06113 | 14.76801 | 55 ft | 13 kts | 293° |
| 2026-05-06 07:12 | 55.06156 | 14.76631 | 55 ft | 16 kts | 295° |
| 2026-05-06 07:12 | 55.06208 | 14.76425 | 55 ft | 19 kts | 292° |
| 2026-05-06 07:12 | 55.06269 | 14.76184 | 54 ft | 23 kts | 294° |
| 2026-05-06 07:12 | 55.06342 | 14.75897 | 50 ft | 27 kts | 293° |
| 2026-05-06 07:13 | 55.06416 | 14.75603 | 48 ft | 25 kts | 295° |
| 2026-05-06 07:13 | 55.06483 | 14.75334 | 48 ft | 22 kts | 294° |
| 2026-05-06 07:13 | 55.06549 | 14.75073 | 46 ft | 23 kts | 294° |
| 2026-05-06 07:13 | 55.06614 | 14.74872 | 47 ft | 14 kts | 324° |
| 2026-05-06 07:14 | 55.06697 | 14.74838 | 49 ft | 11 kts | 1° |
| 2026-05-06 07:14 | 55.06773 | 14.74842 | 49 ft | 10 kts | 1° |
| 2026-05-06 07:14 | 55.06835 | 14.74836 | 50 ft | 7 kts | 347° |
| 2026-05-06 07:14 | 55.06880 | 14.74849 | 51 ft | 5 kts | 30° |
| 2026-05-06 07:15 | 55.06892 | 14.74875 | 51 ft | 0 kts | 98° |
| 2026-05-06 07:15 | 55.06890 | 14.74882 | 51 ft | 0 kts | 109° |